Terminal Aerodrome Forecast
Issued by NWS Des Moines, IA

Home | Current Version | Previous Version | Text Only | Print | Product List | Glossary On
Versions: 1 2 3 4 5 6 7 8 9 10 11 12 13 14 15 16 17 18 19 20 21 22 23 24 25 26 27 28 29 30 31 32
000
FTUS43 KDMX 010203 AAB
TAFALO
TAF AMD
KALO 010203Z 0102/0124 14006KT P6SM SCT022 BKN040
     FM010300 14007KT P6SM OVC022
     FM011500 24007KT P6SM OVC020
     FM011600 29007KT P6SM SCT015 BKN080
     FM012100 28010G16KT P6SM SCT080=

USA.gov is the U.S. government's official web portal to all federal, state and local government web resources and services.